Time;durP1;ratioP1;P1;durP2;ratioP2;P2;SDS_P1;SDS_P2;PMS_P1;PMS_P2;Temp;Humidity;BMP_temperature;BMP_pressure;BME280_temperature;BME280_humidity;BME280_pressure;Samples;Min_cycle;Max_cycle;Signal;HPM_P1;HPM_P2
2024/03/05 00:00:39;;;;;;;28.77;23.30;;;;;;;;;;4979403;28;20734;-84
2024/03/05 00:03:05;;;;;;;29.77;23.40;;;;;;;;;;4969843;28;20248;-82
2024/03/05 00:05:33;;;;;;;28.87;23.00;;;;;;;;;;4970611;28;20296;-84
2024/03/05 00:07:59;;;;;;;30.07;22.70;;;;;;;;;;4953922;28;20245;-84
2024/03/05 00:10:27;;;;;;;28.13;22.53;;;;;;;;;;4968564;28;20240;-86
2024/03/05 00:12:55;;;;;;;28.27;22.67;;;;;;;;;;4984427;28;20256;-84
2024/03/05 00:15:21;;;;;;;26.47;22.63;;;;;;;;;;4986818;28;20221;-86
2024/03/05 00:17:47;;;;;;;25.63;21.97;;;;;;;;;;4981394;28;20314;-87
2024/03/05 00:20:20;;;;;;;23.90;21.23;;;;;;;;;;4964882;28;20312;-86
2024/03/05 00:22:50;;;;;;;30.03;22.60;;;;;;;;;;4983162;28;20233;-86
2024/03/05 00:25:18;;;;;;;28.83;21.23;;;;;;;;;;4981233;28;20260;-83
2024/03/05 00:27:49;;;;;;;26.13;21.40;;;;;;;;;;4997342;28;20229;-86
2024/03/05 00:30:18;;;;;;;26.07;20.80;;;;;;;;;;4980523;28;20301;-85
2024/03/05 00:32:44;;;;;;;30.97;21.67;;;;;;;;;;4963195;28;20324;-86
2024/03/05 00:35:10;;;;;;;28.33;21.00;;;;;;;;;;4980308;28;20229;-84
2024/03/05 00:37:38;;;;;;;24.90;20.87;;;;;;;;;;4980976;28;20240;-84
2024/03/05 00:40:08;;;;;;;25.07;20.50;;;;;;;;;;4963439;28;20226;-86
2024/03/05 00:42:34;;;;;;;24.23;20.60;;;;;;;;;;4994501;28;21013;-86
2024/03/05 00:45:00;;;;;;;24.80;20.23;;;;;;;;;;4964132;28;20631;-86
2024/03/05 00:47:28;;;;;;;24.73;20.37;;;;;;;;;;4972083;28;20221;-86
2024/03/05 00:49:55;;;;;;;24.80;20.13;;;;;;;;;;4978926;28;20239;-85
2024/03/05 00:52:20;;;;;;;24.73;20.00;;;;;;;;;;4961106;28;20224;-84
2024/03/05 00:54:48;;;;;;;25.27;19.63;;;;;;;;;;4963159;28;20225;-84
2024/03/05 00:57:16;;;;;;;23.67;19.53;;;;;;;;;;4993639;28;20245;-84
2024/03/05 00:59:43;;;;;;;25.70;20.23;;;;;;;;;;4973841;28;20225;-86
2024/03/05 01:02:09;;;;;;;26.47;19.53;;;;;;;;;;4990076;28;20233;-85
2024/03/05 01:04:36;;;;;;;24.93;19.23;;;;;;;;;;4978554;28;20233;-83
2024/03/05 01:07:02;;;;;;;22.60;19.30;;;;;;;;;;4962842;28;20237;-86
2024/03/05 01:09:32;;;;;;;23.43;19.13;;;;;;;;;;4977764;28;20544;-85
2024/03/05 01:12:01;;;;;;;24.03;18.97;;;;;;;;;;4979123;28;20232;-83
2024/03/05 01:14:26;;;;;;;21.10;17.93;;;;;;;;;;4961863;28;20225;-82
2024/03/05 01:16:52;;;;;;;25.63;17.93;;;;;;;;;;4996715;28;20244;-85
2024/03/05 01:19:25;;;;;;;25.17;18.57;;;;;;;;;;4979581;28;20225;-82
2024/03/05 01:21:52;;;;;;;21.87;17.60;;;;;;;;;;4958494;28;20209;-85
2024/03/05 01:24:18;;;;;;;26.27;18.33;;;;;;;;;;4988782;28;20236;-82
2024/03/05 01:26:46;;;;;;;21.70;17.23;;;;;;;;;;4980642;28;20221;-85
2024/03/05 01:29:17;;;;;;;20.33;17.07;;;;;;;;;;4976869;28;20277;-84
2024/03/05 01:31:44;;;;;;;20.87;17.10;;;;;;;;;;4980817;28;20229;-84
2024/03/05 01:34:12;;;;;;;22.77;18.37;;;;;;;;;;4969205;28;20209;-82
2024/03/05 01:36:40;;;;;;;22.80;17.30;;;;;;;;;;4969742;28;20261;-87
2024/03/05 01:39:06;;;;;;;21.07;17.47;;;;;;;;;;4997314;28;20225;-85
2024/03/05 01:41:34;;;;;;;21.27;16.30;;;;;;;;;;4966031;28;20218;-86
2024/03/05 01:43:59;;;;;;;20.87;17.03;;;;;;;;;;4967846;28;20235;-87
2024/03/05 01:46:26;;;;;;;19.23;16.77;;;;;;;;;;4981843;28;20233;-85
2024/03/05 01:48:52;;;;;;;22.70;16.80;;;;;;;;;;4983359;28;20218;-86
2024/03/05 01:51:18;;;;;;;20.93;16.90;;;;;;;;;;4967543;28;20229;-84
2024/03/05 01:53:44;;;;;;;22.77;17.00;;;;;;;;;;5001801;28;20854;-85
2024/03/05 01:56:17;;;;;;;20.47;16.13;;;;;;;;;;4947508;28;20241;-84
2024/03/05 01:58:42;;;;;;;22.50;16.87;;;;;;;;;;4980825;28;20234;-87
2024/03/05 02:01:10;;;;;;;20.37;15.90;;;;;;;;;;4965564;28;20640;-86
2024/03/05 02:03:35;;;;;;;20.37;15.70;;;;;;;;;;4966813;28;20233;-84
2024/03/05 02:06:01;;;;;;;22.53;16.73;;;;;;;;;;4986268;28;20221;-88
2024/03/05 02:08:29;;;;;;;21.73;15.57;;;;;;;;;;4966891;28;20213;-86
2024/03/05 02:10:55;;;;;;;22.23;16.53;;;;;;;;;;4982953;28;20209;-88
2024/03/05 02:13:21;;;;;;;20.57;17.00;;;;;;;;;;4965437;28;20271;-83
2024/03/05 02:15:49;;;;;;;19.83;15.73;;;;;;;;;;4983599;28;20221;-86
2024/03/05 02:18:17;;;;;;;25.97;17.10;;;;;;;;;;4978949;28;20225;-85
2024/03/05 02:20:44;;;;;;;21.50;16.83;;;;;;;;;;4965886;28;20248;-82
2024/03/05 02:23:10;;;;;;;21.23;16.50;;;;;;;;;;4982579;28;20234;-85
2024/03/05 02:25:40;;;;;;;19.17;15.53;;;;;;;;;;4967849;28;20313;-85
2024/03/05 02:28:08;;;;;;;20.00;15.27;;;;;;;;;;4998836;28;20253;-88
2024/03/05 02:30:35;;;;;;;20.37;16.23;;;;;;;;;;4966060;28;20217;-86
2024/03/05 02:33:04;;;;;;;21.50;16.00;;;;;;;;;;4980376;28;20229;-87
2024/03/05 02:35:29;;;;;;;25.83;16.30;;;;;;;;;;4984968;28;20227;-82
2024/03/05 02:38:00;;;;;;;22.10;16.47;;;;;;;;;;4966357;28;20229;-85
2024/03/05 02:40:25;;;;;;;20.33;15.70;;;;;;;;;;4964351;28;20244;-84
2024/03/05 02:42:52;;;;;;;20.77;16.50;;;;;;;;;;4981151;28;20225;-86
2024/03/05 02:45:20;;;;;;;21.40;15.47;;;;;;;;;;4966060;28;20240;-84
2024/03/05 02:47:47;;;;;;;22.20;16.50;;;;;;;;;;4964078;28;20338;-85
2024/03/05 02:50:17;;;;;;;19.27;15.57;;;;;;;;;;4950209;28;21079;-86
2024/03/05 02:52:44;;;;;;;19.53;16.10;;;;;;;;;;4979500;28;20237;-86
2024/03/05 02:55:10;;;;;;;21.33;15.73;;;;;;;;;;4980272;28;20218;-87
2024/03/05 02:57:43;;;;;;;22.20;14.97;;;;;;;;;;4961668;28;20245;-84
2024/03/05 03:00:20;;;;;;;22.40;16.67;;;;;;;;;;4979955;28;20228;-86
2024/03/05 03:02:48;;;;;;;19.07;15.93;;;;;;;;;;4978542;28;20292;-87
2024/03/05 03:05:17;;;;;;;20.73;16.10;;;;;;;;;;4994909;28;20224;-87
2024/03/05 03:07:45;;;;;;;20.17;15.63;;;;;;;;;;4963991;28;20720;-85
2024/03/05 03:10:13;;;;;;;21.67;16.80;;;;;;;;;;4963424;28;20279;-86
2024/03/05 03:12:39;;;;;;;21.97;16.57;;;;;;;;;;4979977;28;20226;-85
2024/03/05 03:15:06;;;;;;;21.20;15.93;;;;;;;;;;4995209;28;20287;-85
2024/03/05 03:17:33;;;;;;;22.50;16.23;;;;;;;;;;4977339;28;20253;-87
2024/03/05 03:20:03;;;;;;;20.43;16.40;;;;;;;;;;4964072;28;20245;-84
2024/03/05 03:22:31;;;;;;;20.63;16.07;;;;;;;;;;4949898;28;20931;-87
2024/03/05 03:24:59;;;;;;;21.13;15.57;;;;;;;;;;4980225;28;20214;-86
2024/03/05 03:27:24;;;;;;;19.90;15.83;;;;;;;;;;4981137;28;20221;-86
2024/03/05 03:29:53;;;;;;;21.57;16.47;;;;;;;;;;4980015;28;20279;-85
2024/03/05 03:32:24;;;;;;;20.23;16.23;;;;;;;;;;4963526;28;20244;-87
2024/03/05 03:34:52;;;;;;;21.30;16.67;;;;;;;;;;4979332;28;20856;-84
2024/03/05 03:37:17;;;;;;;20.23;15.90;;;;;;;;;;4965135;28;20778;-86
2024/03/05 03:39:43;;;;;;;20.73;15.33;;;;;;;;;;4949478;28;20221;-84
2024/03/05 03:42:18;;;;;;;21.47;16.10;;;;;;;;;;4964872;28;20699;-83
2024/03/05 03:44:51;;;;;;;19.17;15.77;;;;;;;;;;4950305;28;20719;-85
2024/03/05 03:47:16;;;;;;;18.23;15.23;;;;;;;;;;4994352;28;20593;-85
2024/03/05 03:49:48;;;;;;;19.30;15.60;;;;;;;;;;4979569;28;20225;-85
2024/03/05 03:52:14;;;;;;;20.20;16.37;;;;;;;;;;4972459;28;20961;-87
2024/03/05 03:54:40;;;;;;;21.90;16.13;;;;;;;;;;4979964;28;20222;-85
2024/03/05 03:57:09;;;;;;;18.40;15.60;;;;;;;;;;4980901;28;20217;-85
2024/03/05 04:03:24;;;;;;;19.17;15.87;;;;;;;;;;4986714;28;20279;-88
2024/03/05 04:05:55;;;;;;;18.70;16.17;;;;;;;;;;4980558;28;20221;-84
2024/03/05 04:08:22;;;;;;;18.63;16.27;;;;;;;;;;4964049;28;20218;-88
2024/03/05 04:10:48;;;;;;;21.43;15.97;;;;;;;;;;4963033;28;20213;-86
2024/03/05 04:13:17;;;;;;;21.27;15.13;;;;;;;;;;4947228;28;20309;-87
2024/03/05 04:19:09;;;;;;;23.27;16.17;;;;;;;;;;5000559;28;20236;-88
2024/03/05 04:21:45;;;;;;;20.93;16.23;;;;;;;;;;4979314;28;20253;-85
2024/03/05 04:24:16;;;;;;;20.00;16.57;;;;;;;;;;4964177;28;20249;-86
2024/03/05 04:26:42;;;;;;;22.20;16.53;;;;;;;;;;4981302;28;20220;-82
2024/03/05 04:29:16;;;;;;;20.73;16.13;;;;;;;;;;4962764;28;20308;-84
2024/03/05 04:31:43;;;;;;;20.17;16.30;;;;;;;;;;4949378;28;20225;-86
2024/03/05 04:34:10;;;;;;;20.63;16.10;;;;;;;;;;4945786;28;20229;-86
2024/03/05 04:36:39;;;;;;;23.53;16.23;;;;;;;;;;4948607;28;20237;-83
2024/03/05 04:39:06;;;;;;;23.77;16.33;;;;;;;;;;4979437;28;20226;-86
2024/03/05 04:41:34;;;;;;;21.57;16.50;;;;;;;;;;4963548;28;20221;-87
2024/03/05 04:44:00;;;;;;;23.30;16.50;;;;;;;;;;4950579;28;20302;-87
2024/03/05 04:46:28;;;;;;;22.77;16.47;;;;;;;;;;4988340;28;20313;-85
2024/03/05 04:48:56;;;;;;;22.07;15.90;;;;;;;;;;4957900;28;20306;-79
2024/03/05 04:51:25;;;;;;;22.23;17.73;;;;;;;;;;4975285;28;20248;-80
2024/03/05 04:53:50;;;;;;;22.10;17.20;;;;;;;;;;4977480;28;20221;-78
2024/03/05 04:56:16;;;;;;;21.50;17.67;;;;;;;;;;4974683;28;20235;-79
2024/03/05 04:58:41;;;;;;;25.13;17.87;;;;;;;;;;4989927;28;20248;-79
2024/03/05 05:01:09;;;;;;;21.40;17.93;;;;;;;;;;4990163;28;20221;-79
2024/03/05 05:03:34;;;;;;;21.57;18.10;;;;;;;;;;4974424;28;20235;-78
2024/03/05 05:06:05;;;;;;;24.40;18.40;;;;;;;;;;4992405;28;20213;-78
2024/03/05 05:08:35;;;;;;;22.27;18.17;;;;;;;;;;4973802;28;20291;-79
2024/03/05 05:11:00;;;;;;;22.77;18.37;;;;;;;;;;4992029;28;20313;-79
2024/03/05 05:13:43;;;;;;;25.20;18.27;;;;;;;;;;4975373;28;20233;-77
2024/03/05 05:16:11;;;;;;;21.03;18.80;;;;;;;;;;4968818;28;20689;-79
2024/03/05 05:18:37;;;;;;;27.50;19.07;;;;;;;;;;4974292;28;20217;-79
2024/03/05 05:21:03;;;;;;;25.23;19.10;;;;;;;;;;4999989;28;21033;-79
2024/03/05 05:23:29;;;;;;;26.30;19.87;;;;;;;;;;5006173;28;20225;-78
2024/03/05 05:25:54;;;;;;;27.93;20.27;;;;;;;;;;4991388;28;20221;-78
2024/03/05 05:28:24;;;;;;;24.97;19.47;;;;;;;;;;4989304;28;20217;-80
2024/03/05 05:30:50;;;;;;;25.63;18.90;;;;;;;;;;4990917;28;20253;-78
2024/03/05 05:33:16;;;;;;;26.10;19.70;;;;;;;;;;4992319;28;20213;-78
2024/03/05 05:35:41;;;;;;;26.77;20.17;;;;;;;;;;4960467;28;20221;-82
2024/03/05 05:38:10;;;;;;;26.80;21.03;;;;;;;;;;4976664;28;20299;-80
2024/03/05 05:40:38;;;;;;;23.50;20.13;;;;;;;;;;4990804;28;20250;-78
2024/03/05 05:43:04;;;;;;;25.37;20.23;;;;;;;;;;4973131;28;20872;-78
2024/03/05 05:45:29;;;;;;;26.47;21.03;;;;;;;;;;4974005;28;20225;-79
2024/03/05 05:47:56;;;;;;;25.43;20.37;;;;;;;;;;4959079;28;20205;-79
2024/03/05 05:50:22;;;;;;;27.83;20.30;;;;;;;;;;4972544;28;20229;-81
2024/03/05 05:52:54;;;;;;;29.50;20.87;;;;;;;;;;4953514;28;20276;-80
2024/03/05 05:55:20;;;;;;;27.43;21.00;;;;;;;;;;5005558;28;20217;-76
2024/03/05 05:58:04;;;;;;;26.83;20.67;;;;;;;;;;5006524;28;20225;-79
2024/03/05 06:00:32;;;;;;;27.20;20.93;;;;;;;;;;4972570;28;20324;-79
2024/03/05 06:02:58;;;;;;;24.73;20.90;;;;;;;;;;4960983;28;20321;-77
2024/03/05 06:05:31;;;;;;;25.57;21.30;;;;;;;;;;5018324;28;20301;-77
2024/03/05 06:07:58;;;;;;;28.47;22.17;;;;;;;;;;4970241;28;20309;-78
2024/03/05 06:10:27;;;;;;;28.90;20.67;;;;;;;;;;4987882;28;20228;-78
2024/03/05 06:12:53;;;;;;;25.87;21.33;;;;;;;;;;4988030;28;20303;-79
2024/03/05 06:15:18;;;;;;;24.93;21.77;;;;;;;;;;4972613;28;20210;-79
2024/03/05 06:17:49;;;;;;;24.70;20.50;;;;;;;;;;4962207;28;20222;-78
2024/03/05 06:20:15;;;;;;;28.43;21.10;;;;;;;;;;4993817;28;20225;-80
2024/03/05 06:22:46;;;;;;;29.30;21.30;;;;;;;;;;4993434;28;20217;-80
2024/03/05 06:25:13;;;;;;;27.43;21.37;;;;;;;;;;4988809;28;20229;-78
2024/03/05 06:27:39;;;;;;;28.67;22.80;;;;;;;;;;4994810;28;20240;-79
2024/03/05 06:30:09;;;;;;;30.63;21.70;;;;;;;;;;4945233;28;20213;-78
2024/03/05 06:32:43;;;;;;;26.83;21.37;;;;;;;;;;5010482;28;20229;-79
2024/03/05 06:35:11;;;;;;;26.17;21.23;;;;;;;;;;4995396;28;20293;-77
2024/03/05 06:37:46;;;;;;;28.80;21.33;;;;;;;;;;4979759;28;20237;-78
2024/03/05 06:40:19;;;;;;;26.20;22.20;;;;;;;;;;4965235;28;20301;-79
2024/03/05 06:42:52;;;;;;;27.87;21.97;;;;;;;;;;4981251;28;20218;-80
2024/03/05 06:45:27;;;;;;;28.07;21.17;;;;;;;;;;4995276;28;20217;-79
2024/03/05 06:48:07;;;;;;;30.73;22.40;;;;;;;;;;4980187;28;20284;-79
2024/03/05 06:50:39;;;;;;;28.00;22.37;;;;;;;;;;4947057;28;20229;-80
2024/03/05 06:58:37;;;;;;;26.03;20.43;;;;;;;;;;4994151;28;20233;-80
2024/03/05 07:01:07;;;;;;;25.23;20.10;;;;;;;;;;4979317;28;20225;-79
2024/03/05 07:03:42;;;;;;;27.60;20.70;;;;;;;;;;4959860;28;20244;-79
2024/03/05 07:06:09;;;;;;;25.80;19.90;;;;;;;;;;4994283;28;20220;-78
2024/03/05 07:08:42;;;;;;;23.67;19.60;;;;;;;;;;5009008;28;20237;-79
2024/03/05 07:11:09;;;;;;;26.20;20.30;;;;;;;;;;4978622;28;20248;-79
2024/03/05 07:13:40;;;;;;;24.57;19.33;;;;;;;;;;4994804;28;20232;-79
2024/03/05 07:16:09;;;;;;;24.13;19.67;;;;;;;;;;4963564;28;20225;-79
2024/03/05 07:18:37;;;;;;;24.93;18.90;;;;;;;;;;5010562;28;20233;-80
2024/03/05 07:21:07;;;;;;;23.20;19.13;;;;;;;;;;4947070;28;20694;-79
2024/03/05 07:23:33;;;;;;;25.50;19.17;;;;;;;;;;4971309;28;20260;-78
2024/03/05 07:25:58;;;;;;;24.40;19.13;;;;;;;;;;4981094;28;20233;-78
2024/03/05 07:28:25;;;;;;;25.90;18.93;;;;;;;;;;4993858;28;20225;-77
2024/03/05 07:30:56;;;;;;;27.23;18.90;;;;;;;;;;4979237;28;20217;-78
2024/03/05 07:33:22;;;;;;;22.30;18.90;;;;;;;;;;4971305;28;20611;-78
2024/03/05 07:35:47;;;;;;;23.37;19.67;;;;;;;;;;4979632;28;20226;-78
2024/03/05 07:38:15;;;;;;;20.03;17.80;;;;;;;;;;4977516;28;20263;-78
2024/03/05 07:40:42;;;;;;;25.40;18.70;;;;;;;;;;4963491;28;20750;-79
2024/03/05 07:43:08;;;;;;;22.83;18.70;;;;;;;;;;4976201;28;20452;-78
2024/03/05 07:45:34;;;;;;;26.40;19.40;;;;;;;;;;4991062;28;20744;-79
2024/03/05 07:48:00;;;;;;;26.63;19.57;;;;;;;;;;5008328;28;20221;-79
2024/03/05 07:50:29;;;;;;;24.23;19.80;;;;;;;;;;4959648;28;20217;-77
2024/03/05 07:52:59;;;;;;;24.93;19.50;;;;;;;;;;4990613;28;20301;-78
2024/03/05 07:55:26;;;;;;;22.87;18.23;;;;;;;;;;4984055;28;20313;-78
2024/03/05 07:57:56;;;;;;;22.43;18.07;;;;;;;;;;4976311;28;20217;-80
2024/03/05 08:00:23;;;;;;;22.70;19.37;;;;;;;;;;4985816;28;20348;-80
2024/03/05 08:02:54;;;;;;;21.50;18.13;;;;;;;;;;4991925;28;20221;-78
2024/03/05 08:05:23;;;;;;;24.17;19.10;;;;;;;;;;4976654;28;20287;-80
2024/03/05 08:07:56;;;;;;;24.10;18.90;;;;;;;;;;4968559;28;20224;-79
2024/03/05 08:10:24;;;;;;;21.23;18.40;;;;;;;;;;4975258;28;20291;-80
2024/03/05 08:12:55;;;;;;;22.80;18.70;;;;;;;;;;4990888;28;20296;-80
2024/03/05 08:15:24;;;;;;;22.50;17.43;;;;;;;;;;4991735;28;20226;-79
2024/03/05 08:17:52;;;;;;;22.70;18.23;;;;;;;;;;4990549;28;20704;-79
2024/03/05 08:20:18;;;;;;;21.87;17.73;;;;;;;;;;4976675;28;20309;-78
2024/03/05 08:22:46;;;;;;;20.93;17.20;;;;;;;;;;4991502;28;20316;-78
2024/03/05 08:25:15;;;;;;;24.57;17.70;;;;;;;;;;4976288;28;20226;-79
2024/03/05 08:27:45;;;;;;;19.87;17.27;;;;;;;;;;4959710;28;20644;-78
2024/03/05 08:30:15;;;;;;;22.97;17.93;;;;;;;;;;4990108;28;20225;-79
2024/03/05 08:32:43;;;;;;;21.30;17.10;;;;;;;;;;4973009;28;20240;-80
2024/03/05 08:35:09;;;;;;;24.20;18.07;;;;;;;;;;4989773;28;20252;-78
2024/03/05 08:37:35;;;;;;;20.47;17.30;;;;;;;;;;4975763;28;20237;-79
2024/03/05 08:40:03;;;;;;;20.13;16.37;;;;;;;;;;4973989;28;20232;-79
2024/03/05 08:42:28;;;;;;;19.53;16.97;;;;;;;;;;4989082;28;20233;-78
2024/03/05 08:44:56;;;;;;;21.90;17.40;;;;;;;;;;4976994;28;20213;-78
2024/03/05 08:47:25;;;;;;;19.10;16.47;;;;;;;;;;4988637;28;20237;-78
2024/03/05 08:49:50;;;;;;;23.67;15.93;;;;;;;;;;4977819;28;20293;-80
2024/03/05 08:52:17;;;;;;;19.97;16.40;;;;;;;;;;4944022;28;20229;-78
2024/03/05 08:54:45;;;;;;;22.80;17.37;;;;;;;;;;4977482;28;20231;-79
2024/03/05 08:57:11;;;;;;;19.93;16.07;;;;;;;;;;4971048;28;20379;-79
2024/03/05 08:59:37;;;;;;;21.47;16.07;;;;;;;;;;4960515;28;20237;-78
2024/03/05 09:02:04;;;;;;;19.50;16.40;;;;;;;;;;4959714;28;20221;-79
2024/03/05 09:04:34;;;;;;;25.20;17.00;;;;;;;;;;4993552;28;20225;-78
2024/03/05 09:07:05;;;;;;;20.43;16.53;;;;;;;;;;4997963;28;20217;-80
2024/03/05 09:09:30;;;;;;;19.97;16.30;;;;;;;;;;4991498;28;20241;-80
2024/03/05 09:11:59;;;;;;;20.67;16.17;;;;;;;;;;4963286;28;20893;-81
2024/03/05 09:14:25;;;;;;;20.17;16.50;;;;;;;;;;5012258;28;20221;-80
2024/03/05 09:16:55;;;;;;;18.83;15.83;;;;;;;;;;4993180;28;20232;-81
2024/03/05 09:19:23;;;;;;;20.67;16.00;;;;;;;;;;4979513;28;20236;-80
2024/03/05 09:21:49;;;;;;;20.93;16.17;;;;;;;;;;4991456;28;20222;-80
2024/03/05 09:24:15;;;;;;;20.97;16.33;;;;;;;;;;4994671;28;20232;-79
2024/03/05 09:26:47;;;;;;;20.60;15.93;;;;;;;;;;4962114;28;20225;-79
2024/03/05 09:29:15;;;;;;;24.00;17.07;;;;;;;;;;4992032;28;20530;-80
2024/03/05 09:31:40;;;;;;;20.47;16.30;;;;;;;;;;4991958;28;20220;-80
2024/03/05 09:34:06;;;;;;;18.80;14.90;;;;;;;;;;4960511;28;20229;-81
2024/03/05 09:36:31;;;;;;;19.57;15.63;;;;;;;;;;4978199;28;20261;-79
2024/03/05 09:38:57;;;;;;;20.07;15.00;;;;;;;;;;4944186;28;20221;-79
2024/03/05 09:41:22;;;;;;;19.30;14.77;;;;;;;;;;4962374;28;20283;-79
2024/03/05 09:43:50;;;;;;;19.47;15.33;;;;;;;;;;4960240;28;20235;-77
2024/03/05 09:46:17;;;;;;;18.37;14.97;;;;;;;;;;4943718;28;20224;-79
2024/03/05 09:48:43;;;;;;;18.03;14.90;;;;;;;;;;5009296;28;20301;-80
2024/03/05 09:51:09;;;;;;;19.23;14.30;;;;;;;;;;4962004;28;20217;-78
2024/03/05 09:53:38;;;;;;;17.70;13.93;;;;;;;;;;4975532;28;20388;-77
2024/03/05 09:56:04;;;;;;;20.13;14.70;;;;;;;;;;4980763;28;20218;-78
2024/03/05 09:58:37;;;;;;;15.90;13.60;;;;;;;;;;5012381;28;20244;-79
2024/03/05 10:01:03;;;;;;;20.67;14.07;;;;;;;;;;4994513;28;20217;-77
2024/03/05 10:03:30;;;;;;;17.23;13.33;;;;;;;;;;4963193;28;20736;-79
2024/03/05 10:05:56;;;;;;;19.73;13.60;;;;;;;;;;4987906;28;20369;-79
2024/03/05 10:08:21;;;;;;;19.37;13.80;;;;;;;;;;4978332;28;20284;-80
2024/03/05 10:10:47;;;;;;;14.13;12.60;;;;;;;;;;4980807;28;20239;-79
2024/03/05 10:13:14;;;;;;;16.37;12.50;;;;;;;;;;4980717;28;20229;-81
2024/03/05 10:15:43;;;;;;;14.73;12.03;;;;;;;;;;4997250;28;20762;-80
2024/03/05 10:18:08;;;;;;;17.77;12.23;;;;;;;;;;4980505;28;20225;-80
2024/03/05 10:20:38;;;;;;;17.27;12.70;;;;;;;;;;4978840;28;20228;-80
2024/03/05 10:23:05;;;;;;;16.73;12.40;;;;;;;;;;4981121;28;20294;-80
2024/03/05 10:25:32;;;;;;;16.73;12.70;;;;;;;;;;4964000;28;20245;-79
2024/03/05 10:28:04;;;;;;;15.17;12.10;;;;;;;;;;4977242;28;20224;-80
2024/03/05 10:30:33;;;;;;;15.80;12.37;;;;;;;;;;4962593;28;20233;-79
2024/03/05 10:33:07;;;;;;;17.73;12.00;;;;;;;;;;4978711;28;20237;-79
2024/03/05 10:35:33;;;;;;;18.93;12.33;;;;;;;;;;4978826;28;20237;-78
2024/03/05 10:38:07;;;;;;;17.30;11.13;;;;;;;;;;4995817;28;20280;-78
2024/03/05 10:40:34;;;;;;;15.47;11.17;;;;;;;;;;4963299;28;20239;-78
2024/03/05 10:43:02;;;;;;;18.00;11.20;;;;;;;;;;4978703;28;20309;-79
2024/03/05 10:45:27;;;;;;;12.10;10.73;;;;;;;;;;4995828;28;20296;-80
2024/03/05 10:47:56;;;;;;;16.17;11.70;;;;;;;;;;4994227;28;20231;-80
2024/03/05 10:50:25;;;;;;;12.60;11.03;;;;;;;;;;4965246;28;20695;-79
2024/03/05 10:52:51;;;;;;;14.83;10.53;;;;;;;;;;4952555;28;20237;-79
2024/03/05 10:55:17;;;;;;;14.80;10.73;;;;;;;;;;4985983;28;20248;-77
2024/03/05 11:00:27;;;;;;;15.10;10.77;;;;;;;;;;4978612;28;20226;-82
2024/03/05 11:02:53;;;;;;;14.80;10.47;;;;;;;;;;4978003;28;20309;-80
2024/03/05 11:05:19;;;;;;;17.23;10.87;;;;;;;;;;4964547;28;20252;-78
2024/03/05 11:07:47;;;;;;;14.53;10.23;;;;;;;;;;4979785;28;20213;-78
2024/03/05 11:10:12;;;;;;;14.63;10.40;;;;;;;;;;4980810;28;20221;-80
2024/03/05 11:12:40;;;;;;;13.90;10.23;;;;;;;;;;4997105;28;20243;-80
2024/03/05 11:15:11;;;;;;;12.53;10.37;;;;;;;;;;4963342;28;20241;-79
2024/03/05 11:17:36;;;;;;;13.60;9.93;;;;;;;;;;4997591;28;20236;-81
2024/03/05 11:20:03;;;;;;;14.90;10.00;;;;;;;;;;4997345;28;20722;-80
2024/03/05 11:22:29;;;;;;;15.87;10.20;;;;;;;;;;4981517;28;20743;-80
2024/03/05 11:25:04;;;;;;;12.13;9.70;;;;;;;;;;4995145;28;20762;-80
2024/03/05 11:27:34;;;;;;;12.73;9.60;;;;;;;;;;4976167;28;20220;-80
2024/03/05 11:30:15;;;;;;;12.60;9.47;;;;;;;;;;4985770;28;20248;-80
2024/03/05 11:32:44;;;;;;;11.93;9.77;;;;;;;;;;4979395;28;20301;-80
2024/03/05 11:35:13;;;;;;;16.20;9.97;;;;;;;;;;4973747;28;20229;-81
2024/03/05 11:37:54;;;;;;;11.43;9.47;;;;;;;;;;4989269;28;20225;-82
2024/03/05 11:40:28;;;;;;;14.57;10.20;;;;;;;;;;4964303;28;20229;-82
2024/03/05 11:42:54;;;;;;;13.97;9.97;;;;;;;;;;4963303;28;20241;-80
2024/03/05 11:45:47;;;;;;;19.27;10.30;;;;;;;;;;4993772;28;20218;-79
2024/03/05 11:48:18;;;;;;;11.60;9.83;;;;;;;;;;4959859;28;20229;-79
2024/03/05 11:50:46;;;;;;;11.47;10.27;;;;;;;;;;4988098;28;20234;-78
2024/03/05 11:53:14;;;;;;;14.60;10.13;;;;;;;;;;4976669;28;20225;-83
2024/03/05 11:55:42;;;;;;;13.13;10.63;;;;;;;;;;4992443;28;20260;-80
2024/03/05 11:58:10;;;;;;;17.63;10.10;;;;;;;;;;4991766;28;20221;-80
2024/03/05 12:00:38;;;;;;;16.80;10.77;;;;;;;;;;4977131;28;20769;-81
2024/03/05 12:03:04;;;;;;;14.90;9.33;;;;;;;;;;4961852;28;20243;-80
2024/03/05 12:05:32;;;;;;;13.60;10.70;;;;;;;;;;4962162;28;20226;-81
2024/03/05 12:08:01;;;;;;;11.60;10.00;;;;;;;;;;4963064;28;20229;-79
2024/03/05 12:10:28;;;;;;;15.77;9.57;;;;;;;;;;4963018;28;20856;-80
2024/03/05 12:12:57;;;;;;;11.40;9.20;;;;;;;;;;4962584;28;20341;-80
2024/03/05 12:15:23;;;;;;;14.63;9.77;;;;;;;;;;4995889;28;20228;-79
2024/03/05 12:17:48;;;;;;;11.47;8.60;;;;;;;;;;4992235;28;20241;-79
2024/03/05 12:20:18;;;;;;;10.37;8.47;;;;;;;;;;4979739;28;20293;-79
2024/03/05 12:22:53;;;;;;;10.27;8.00;;;;;;;;;;4980519;28;20947;-79
2024/03/05 12:25:26;;;;;;;13.17;8.50;;;;;;;;;;4979999;28;20225;-80
2024/03/05 12:27:52;;;;;;;15.20;8.17;;;;;;;;;;4971232;28;20244;-80
2024/03/05 12:30:17;;;;;;;13.20;8.07;;;;;;;;;;4980244;28;20687;-80
2024/03/05 12:32:48;;;;;;;8.70;7.73;;;;;;;;;;4976586;28;20291;-79
2024/03/05 12:35:14;;;;;;;10.93;8.43;;;;;;;;;;4963898;28;20251;-80
2024/03/05 12:37:43;;;;;;;9.97;8.30;;;;;;;;;;4963188;28;20229;-80
2024/03/05 12:40:17;;;;;;;12.07;8.67;;;;;;;;;;4955856;28;20244;-79
2024/03/05 12:42:49;;;;;;;12.33;8.90;;;;;;;;;;4962106;28;20596;-79
2024/03/05 12:45:15;;;;;;;10.33;7.67;;;;;;;;;;4987626;28;20270;-81
2024/03/05 12:47:45;;;;;;;11.47;8.10;;;;;;;;;;4981553;28;20229;-81
2024/03/05 12:50:11;;;;;;;11.90;8.20;;;;;;;;;;4977781;28;20248;-79
2024/03/05 12:52:37;;;;;;;12.57;8.20;;;;;;;;;;4978495;28;20233;-82
2024/03/05 12:55:07;;;;;;;10.43;7.70;;;;;;;;;;4991869;28;20248;-81
2024/03/05 12:57:33;;;;;;;9.90;8.20;;;;;;;;;;4977402;28;20237;-80
2024/03/05 13:00:00;;;;;;;10.97;7.70;;;;;;;;;;4980918;28;20221;-80
2024/03/05 13:02:29;;;;;;;11.80;8.33;;;;;;;;;;4991032;28;20225;-81
2024/03/05 13:04:55;;;;;;;10.93;8.20;;;;;;;;;;4987884;28;20281;-80
2024/03/05 13:07:21;;;;;;;10.23;8.53;;;;;;;;;;4978100;28;20271;-79
2024/03/05 13:09:49;;;;;;;10.87;8.10;;;;;;;;;;4972499;28;20226;-79
2024/03/05 13:12:15;;;;;;;12.20;8.13;;;;;;;;;;4978574;28;20225;-78
2024/03/05 13:14:40;;;;;;;12.03;7.80;;;;;;;;;;4979611;28;20228;-80
2024/03/05 13:17:09;;;;;;;10.67;7.63;;;;;;;;;;4985162;28;20239;-81
2024/03/05 13:19:36;;;;;;;12.47;7.90;;;;;;;;;;4990433;28;20321;-80
2024/03/05 13:22:02;;;;;;;12.13;7.70;;;;;;;;;;4976068;28;20297;-80
2024/03/05 13:24:27;;;;;;;8.33;7.40;;;;;;;;;;4991153;28;20248;-80
2024/03/05 13:26:55;;;;;;;9.23;7.33;;;;;;;;;;4983370;28;20225;-79
2024/03/05 13:29:21;;;;;;;9.13;7.17;;;;;;;;;;4983431;28;20339;-81
2024/03/05 13:31:49;;;;;;;11.17;7.43;;;;;;;;;;4980436;28;20313;-80
2024/03/05 13:34:21;;;;;;;13.10;7.27;;;;;;;;;;4994138;28;20380;-79
2024/03/05 13:36:47;;;;;;;11.60;7.10;;;;;;;;;;4977130;28;20244;-79
2024/03/05 13:39:21;;;;;;;10.53;7.57;;;;;;;;;;4999882;28;20219;-80
2024/03/05 13:41:52;;;;;;;9.10;6.77;;;;;;;;;;4983206;28;20227;-81
2024/03/05 13:44:20;;;;;;;10.77;7.13;;;;;;;;;;4987825;28;20243;-80
2024/03/05 13:46:50;;;;;;;9.93;6.90;;;;;;;;;;4998389;28;20772;-81
2024/03/05 13:49:17;;;;;;;12.20;7.67;;;;;;;;;;4980648;28;20312;-80
2024/03/05 13:51:46;;;;;;;7.87;6.33;;;;;;;;;;4965769;28;20219;-80
2024/03/05 13:54:12;;;;;;;10.50;6.47;;;;;;;;;;4995735;28;20237;-79
2024/03/05 13:56:42;;;;;;;9.90;6.70;;;;;;;;;;4986211;28;20221;-80
2024/03/05 13:59:09;;;;;;;8.63;6.13;;;;;;;;;;4981539;28;20230;-82
2024/03/05 14:01:35;;;;;;;7.17;6.40;;;;;;;;;;4969979;28;20312;-79
2024/03/05 14:04:01;;;;;;;8.27;6.37;;;;;;;;;;4981271;28;20826;-79
2024/03/05 14:06:27;;;;;;;9.40;6.47;;;;;;;;;;4980147;28;20213;-79
2024/03/05 14:08:56;;;;;;;11.77;6.80;;;;;;;;;;4982838;28;20255;-79
2024/03/05 14:11:22;;;;;;;9.27;5.50;;;;;;;;;;4963380;28;20221;-79
2024/03/05 14:13:47;;;;;;;9.33;6.23;;;;;;;;;;4979753;28;20257;-79
2024/03/05 14:16:13;;;;;;;9.30;5.80;;;;;;;;;;4990530;28;20240;-80
2024/03/05 14:18:45;;;;;;;6.60;5.80;;;;;;;;;;4982677;28;20237;-79
2024/03/05 14:21:11;;;;;;;8.00;5.23;;;;;;;;;;4956122;28;20221;-81
2024/03/05 14:23:39;;;;;;;7.87;6.40;;;;;;;;;;4998135;28;20225;-81
2024/03/05 14:26:05;;;;;;;7.83;6.20;;;;;;;;;;4980584;28;20319;-80
2024/03/05 14:28:32;;;;;;;11.13;6.30;;;;;;;;;;4969618;28;20232;-78
2024/03/05 14:31:00;;;;;;;8.77;6.07;;;;;;;;;;4977474;28;20226;-81
2024/03/05 14:33:26;;;;;;;6.80;5.43;;;;;;;;;;4953914;28;20224;-80
2024/03/05 14:35:53;;;;;;;7.80;6.00;;;;;;;;;;4981334;28;20313;-82
2024/03/05 14:38:20;;;;;;;8.20;5.70;;;;;;;;;;5012482;28;20299;-80
2024/03/05 14:40:54;;;;;;;8.50;5.67;;;;;;;;;;4995149;28;20233;-79